Accueil
METAR-TAF:

METAR-TAF

Aéroports :

Lismore, Australie

latitude: 28-49-41S, longitude: 153-15-36E, altitude: 11 m

Observation

Le bulletin a été fait il y a 1 heure et 4 minutes, à 06:00 UTC
Vent calme
Température 19°C
Humidité 73%
Pression 1023 hPa
Visibilité 10 km ou plus
Nuages fragmentés à une hauteur de 2900 ft
Ciel couvert à une hauteur de 3600 ft
Ciel couvert à une hauteur de 4500 ft

METAR: YLIS 270600Z AUTO 00000KT 9999 // BKN029 OVC036 OVC045 19/14 Q1023

Heure: 17:04 (07:04 UTC)


TAF: absent

Observations et prévisions météorologiques de plus de 4000 aéroports (messages METAR et TAF).

Les stations disponibles sont représentées par des disques jaunes et rouges sur la carte.

Passer la souris dessus pour voir le nom de la station.

Cliquer dessus pour voir les observations et prévisions météorologiques.

Pour changer de carte: cliquez sur les boutons verts avec une croix noire pour zoomer, sur le bouton vert avec un tiret pour effectuer un zoom arrière, ou sur les flèches vertes pour les cartes adjacentes.


METAR-TAF: